ESGG/GOT METAR and TAF weather

Enter ICAO airport designator
Station Type Date Time Source
ESGG METAR 2022/11/27 08:20 UTC NOAA

ESGG 270820Z 15006KT 9000 BKN004 OVC006 04/04 Q1025


Station Type Date Time Source
ESGG Decoded METAR 2022/11/27 08:20 UTC NOAA

Goteborg / Landvetter, Sweden (ESGG) 57-40N 012-18E
Nov 27, 2022 - 03:20 AM EST / 2022.11.27 0820 UTC
Wind: from the SSE (150 degrees) at 7 MPH (6 KT):0
Visibility: 5 mile(s):0
Sky conditions: overcast
Temperature: 39 F (4 C)
Dew Point: 39 F (4 C)
Relative Humidity: 100%
Pressure (altimeter): 30.27 in. Hg (1025 hPa)
ob: ESGG 270820Z 15006KT 9000 BKN004 OVC006 04/04 Q1025
cycle: 8

Station Type Date Time Source
ESGG TAF 2022/11/27 09:12 UTC NOAA

TAF TAF ESGG 270830Z 2709/2809 15007KT 8000 BKN006
TEMPO 2711/2809 SCT006 BKN018

Example: see airport list